createdAt,value
2023-01-29T00:00:30.356Z,1006.86
2023-01-29T00:01:30.321Z,1006.82
2023-01-29T00:02:30.319Z,1006.86
2023-01-29T00:03:30.342Z,1006.88
2023-01-29T00:04:30.397Z,1006.89
2023-01-29T00:05:30.317Z,1006.88
2023-01-29T00:06:30.276Z,1006.82
2023-01-29T00:07:30.292Z,1006.78
2023-01-29T00:08:30.280Z,1006.75
2023-01-29T00:09:30.299Z,1006.78
2023-01-29T00:10:30.281Z,1006.79
2023-01-29T00:11:30.287Z,1006.79
2023-01-29T00:12:30.261Z,1006.80
2023-01-29T00:13:30.267Z,1006.77
2023-01-29T00:14:30.268Z,1006.79
2023-01-29T00:15:30.253Z,1006.76
2023-01-29T00:16:30.226Z,1006.75
2023-01-29T00:17:30.213Z,1006.77
2023-01-29T00:18:30.218Z,1006.73
2023-01-29T00:19:30.218Z,1006.75
2023-01-29T00:20:30.224Z,1006.70
2023-01-29T00:21:30.207Z,1006.74
2023-01-29T00:22:30.204Z,1006.62
2023-01-29T00:23:30.185Z,1006.64
2023-01-29T00:24:30.244Z,1006.56
2023-01-29T00:25:30.213Z,1006.53
2023-01-29T00:26:30.174Z,1006.54
2023-01-29T00:27:30.206Z,1006.56
2023-01-29T00:28:30.147Z,1006.54
2023-01-29T00:29:30.158Z,1006.60
2023-01-29T00:30:30.162Z,1006.57
2023-01-29T00:31:30.276Z,1006.57
2023-01-29T00:32:30.132Z,1006.54
2023-01-29T00:33:30.132Z,1006.51
2023-01-29T00:34:30.139Z,1006.50
2023-01-29T00:35:30.134Z,1006.45
2023-01-29T00:36:30.143Z,1006.43
2023-01-29T00:37:30.106Z,1006.48
2023-01-29T00:38:30.105Z,1006.45
2023-01-29T00:39:46.026Z,1006.39
2023-01-29T00:40:32.090Z,1006.44
2023-01-29T00:41:30.134Z,1006.37
2023-01-29T00:42:30.121Z,1006.42
2023-01-29T00:43:30.127Z,1006.41
2023-01-29T00:44:30.099Z,1006.31
2023-01-29T00:45:30.090Z,1006.46
2023-01-29T00:46:30.119Z,1006.32
2023-01-29T00:47:30.093Z,1006.33
2023-01-29T00:48:30.102Z,1006.30
2023-01-29T00:49:30.060Z,1006.32
2023-01-29T00:50:30.055Z,1006.31
2023-01-29T00:51:30.056Z,1006.22
2023-01-29T00:52:30.047Z,1006.25
2023-01-29T00:53:30.052Z,1006.22
2023-01-29T00:54:31.899Z,1006.15
2023-01-29T00:55:30.042Z,1006.23
2023-01-29T00:56:30.027Z,1006.17
2023-01-29T00:57:30.030Z,1006.15
2023-01-29T00:58:30.029Z,1006.11
2023-01-29T00:59:30.026Z,1006.16
2023-01-29T01:00:30.001Z,1006.13
2023-01-29T01:01:29.991Z,1006.15
2023-01-29T01:02:29.966Z,1006.16
2023-01-29T01:03:29.977Z,1006.16
2023-01-29T01:04:29.998Z,1006.10
2023-01-29T01:05:30.001Z,1006.04
2023-01-29T01:06:29.946Z,1006.09
2023-01-29T01:07:29.972Z,1006.16
2023-01-29T01:08:29.967Z,1006.09
2023-01-29T01:09:29.972Z,1006.13
2023-01-29T01:10:29.932Z,1006.06
2023-01-29T01:11:29.922Z,1006.17
2023-01-29T01:12:29.924Z,1006.21
2023-01-29T01:13:29.932Z,1006.19
2023-01-29T01:14:29.903Z,1006.13
2023-01-29T01:15:29.945Z,1006.15
2023-01-29T01:16:29.920Z,1006.09
2023-01-29T01:17:29.894Z,1006.08
2023-01-29T01:18:29.961Z,1006.07
2023-01-29T01:19:29.865Z,1006.04
2023-01-29T01:20:29.901Z,1006.10
2023-01-29T01:21:29.887Z,1006.00
2023-01-29T01:22:29.854Z,1006.11
2023-01-29T01:23:29.869Z,1006.16
2023-01-29T01:24:29.918Z,1006.19
2023-01-29T01:25:29.863Z,1006.17
2023-01-29T01:26:29.891Z,1006.17
2023-01-29T01:27:29.853Z,1006.16
2023-01-29T01:28:29.850Z,1006.11
2023-01-29T01:29:29.822Z,1006.14
2023-01-29T01:30:29.833Z,1006.19
2023-01-29T01:31:29.912Z,1006.22
2023-01-29T01:32:29.888Z,1006.22
2023-01-29T01:33:29.814Z,1006.23
2023-01-29T01:34:29.782Z,1006.22
2023-01-29T01:35:29.830Z,1006.30
2023-01-29T01:36:29.852Z,1006.31
2023-01-29T01:37:29.821Z,1006.32
2023-01-29T01:38:29.842Z,1006.34
2023-01-29T01:39:29.793Z,1006.30
2023-01-29T01:40:29.789Z,1006.33
2023-01-29T01:41:29.749Z,1006.34
2023-01-29T01:42:29.741Z,1006.30
2023-01-29T01:43:29.779Z,1006.36
2023-01-29T01:44:29.731Z,1006.38
2023-01-29T01:45:29.819Z,1006.41
2023-01-29T01:46:29.713Z,1006.45
2023-01-29T01:47:29.766Z,1006.45
2023-01-29T01:48:29.732Z,1006.45
2023-01-29T01:49:29.702Z,1006.44
2023-01-29T01:50:29.731Z,1006.40
2023-01-29T01:51:29.723Z,1006.36
2023-01-29T01:52:29.665Z,1006.37
2023-01-29T01:53:29.702Z,1006.42
2023-01-29T01:54:29.680Z,1006.40
2023-01-29T01:55:29.703Z,1006.33
2023-01-29T01:56:29.685Z,1006.36
2023-01-29T01:57:29.642Z,1006.37
2023-01-29T01:58:29.694Z,1006.34
2023-01-29T01:59:29.683Z,1006.40
2023-01-29T02:00:29.647Z,1006.34
2023-01-29T02:01:29.684Z,1006.36
2023-01-29T02:02:29.696Z,1006.45
2023-01-29T02:03:29.695Z,1006.46
2023-01-29T02:04:29.651Z,1006.43
2023-01-29T02:05:29.680Z,1006.42
2023-01-29T02:06:29.649Z,1006.36
2023-01-29T02:07:29.638Z,1006.37
2023-01-29T02:08:29.618Z,1006.38
2023-01-29T02:09:29.622Z,1006.40
2023-01-29T02:10:29.602Z,1006.34
2023-01-29T02:11:29.600Z,1006.37
2023-01-29T02:12:29.583Z,1006.35
2023-01-29T02:13:29.723Z,1006.31
2023-01-29T02:14:29.605Z,1006.24
2023-01-29T02:15:29.553Z,1006.36
2023-01-29T02:16:29.551Z,1006.33
2023-01-29T02:17:29.537Z,1006.37
2023-01-29T02:18:29.546Z,1006.38
2023-01-29T02:19:29.580Z,1006.39
2023-01-29T02:20:29.567Z,1006.37
2023-01-29T02:21:30.531Z,1006.33
2023-01-29T02:22:29.549Z,1006.32
2023-01-29T02:23:29.576Z,1006.29
2023-01-29T02:24:29.593Z,1006.31
2023-01-29T02:25:29.538Z,1006.27
2023-01-29T02:26:29.532Z,1006.19
2023-01-29T02:27:29.490Z,1006.22
2023-01-29T02:28:29.507Z,1006.14
2023-01-29T02:29:29.517Z,1006.12
2023-01-29T02:30:29.542Z,1006.05
2023-01-29T02:31:29.535Z,1006.11
2023-01-29T02:32:29.458Z,1006.08
2023-01-29T02:33:29.494Z,1006.03
2023-01-29T02:34:29.459Z,1006.00
2023-01-29T02:35:29.564Z,1006.05
2023-01-29T02:36:29.451Z,1006.05
2023-01-29T02:37:29.436Z,1006.00
2023-01-29T02:38:29.436Z,1006.06
2023-01-29T02:39:29.449Z,1006.00
2023-01-29T02:40:29.435Z,1005.96
2023-01-29T02:41:29.528Z,1005.99
2023-01-29T02:42:29.412Z,1005.98
2023-01-29T02:43:29.413Z,1005.97
2023-01-29T02:44:29.406Z,1005.98
2023-01-29T02:45:29.404Z,1006.03
2023-01-29T02:46:29.425Z,1006.05
2023-01-29T02:47:29.377Z,1005.98
2023-01-29T02:48:29.377Z,1005.96
2023-01-29T02:49:29.363Z,1006.02
2023-01-29T02:50:29.380Z,1006.01
2023-01-29T02:51:29.365Z,1006.01
2023-01-29T02:52:30.379Z,1006.06
2023-01-29T02:53:29.401Z,1005.98
2023-01-29T02:54:29.399Z,1005.98
2023-01-29T02:55:29.338Z,1005.95
2023-01-29T02:56:29.317Z,1005.95
2023-01-29T02:57:29.421Z,1005.95
2023-01-29T02:58:29.353Z,1005.94
2023-01-29T02:59:29.317Z,1005.96
2023-01-29T03:00:29.327Z,1006.01
2023-01-29T03:01:29.334Z,1006.00
2023-01-29T03:02:29.377Z,1006.03
2023-01-29T03:03:29.344Z,1006.02
2023-01-29T03:04:29.313Z,1005.99
2023-01-29T03:05:29.312Z,1005.96
2023-01-29T03:06:29.282Z,1005.94
2023-01-29T03:07:29.292Z,1005.93
2023-01-29T03:08:29.340Z,1005.98
2023-01-29T03:09:29.294Z,1005.96
2023-01-29T03:10:29.267Z,1006.01
2023-01-29T03:11:29.269Z,1006.03
2023-01-29T03:12:29.331Z,1006.09
2023-01-29T03:13:29.280Z,1006.13
2023-01-29T03:14:29.234Z,1006.14
2023-01-29T03:15:29.249Z,1006.18
2023-01-29T03:16:29.288Z,1006.19
2023-01-29T03:17:29.211Z,1006.15
2023-01-29T03:18:29.240Z,1006.12
2023-01-29T03:19:29.228Z,1006.16
2023-01-29T03:20:29.218Z,1006.15
2023-01-29T03:21:29.194Z,1006.15
2023-01-29T03:22:29.188Z,1006.17
2023-01-29T03:23:29.194Z,1006.12
2023-01-29T03:24:29.192Z,1006.18
2023-01-29T03:25:29.184Z,1006.14
2023-01-29T03:26:29.160Z,1006.14
2023-01-29T03:27:29.193Z,1006.17
2023-01-29T03:28:29.174Z,1006.20
2023-01-29T03:29:29.167Z,1006.27
2023-01-29T03:30:29.147Z,1006.31
2023-01-29T03:31:29.244Z,1006.30
2023-01-29T03:32:29.147Z,1006.31
2023-01-29T03:33:29.144Z,1006.30
2023-01-29T03:34:29.162Z,1006.32
2023-01-29T03:35:29.136Z,1006.21
2023-01-29T03:36:29.139Z,1006.19
2023-01-29T03:37:29.142Z,1006.16
2023-01-29T03:38:29.145Z,1006.15
2023-01-29T03:39:29.108Z,1006.11
2023-01-29T03:40:29.089Z,1006.09
2023-01-29T03:41:29.085Z,1006.10
2023-01-29T03:42:29.114Z,1006.16
2023-01-29T03:43:29.089Z,1006.18
2023-01-29T03:44:29.085Z,1006.20
2023-01-29T03:45:29.159Z,1006.18
2023-01-29T03:46:29.108Z,1006.25
2023-01-29T03:47:29.110Z,1006.21
2023-01-29T03:48:29.098Z,1006.24
2023-01-29T03:49:29.061Z,1006.25
2023-01-29T03:50:29.080Z,1006.19
2023-01-29T03:51:29.090Z,1006.29
2023-01-29T03:52:29.064Z,1006.31
2023-01-29T03:53:29.010Z,1006.34
2023-01-29T03:54:29.026Z,1006.39
2023-01-29T03:55:29.006Z,1006.32
2023-01-29T03:56:28.992Z,1006.34
2023-01-29T03:57:29.022Z,1006.38
2023-01-29T03:58:28.985Z,1006.37
2023-01-29T03:59:29.005Z,1006.41
2023-01-29T04:00:29.012Z,1006.45
2023-01-29T04:01:28.998Z,1006.50
2023-01-29T04:02:29.002Z,1006.39
2023-01-29T04:03:29.013Z,1006.43
2023-01-29T04:04:29.039Z,1006.43
2023-01-29T04:05:28.956Z,1006.41
2023-01-29T04:06:28.941Z,1006.38
2023-01-29T04:07:28.983Z,1006.39
2023-01-29T04:08:28.956Z,1006.39
2023-01-29T04:09:28.976Z,1006.44
2023-01-29T04:10:28.922Z,1006.41
2023-01-29T04:11:28.918Z,1006.43
2023-01-29T04:12:28.948Z,1006.34
2023-01-29T04:13:28.941Z,1006.35
2023-01-29T04:14:28.910Z,1006.30
2023-01-29T04:15:28.917Z,1006.24
2023-01-29T04:16:28.984Z,1006.20
2023-01-29T04:17:28.937Z,1006.14
2023-01-29T04:18:28.910Z,1006.19
2023-01-29T04:19:28.902Z,1006.12
2023-01-29T04:20:28.881Z,1006.15
2023-01-29T04:21:28.902Z,1006.15
2023-01-29T04:22:28.908Z,1006.18
2023-01-29T04:23:28.902Z,1006.12
2023-01-29T04:24:28.936Z,1006.09
2023-01-29T04:25:28.837Z,1006.08
2023-01-29T04:26:28.911Z,1006.11
2023-01-29T04:27:28.862Z,1006.08
2023-01-29T04:28:28.890Z,1006.05
2023-01-29T04:29:30.173Z,1005.99
2023-01-29T04:30:29.844Z,1006.00
2023-01-29T04:31:28.922Z,1005.93
2023-01-29T04:32:28.837Z,1005.94
2023-01-29T04:33:28.830Z,1005.93
2023-01-29T04:34:28.840Z,1005.84
2023-01-29T04:35:28.795Z,1005.81
2023-01-29T04:36:28.788Z,1005.85
2023-01-29T04:37:28.780Z,1005.80
2023-01-29T04:38:28.809Z,1005.83
2023-01-29T04:39:28.808Z,1005.86
2023-01-29T04:40:28.784Z,1005.88
2023-01-29T04:41:28.753Z,1005.89
2023-01-29T04:42:28.753Z,1005.79
2023-01-29T04:43:28.762Z,1005.77
2023-01-29T04:44:28.738Z,1005.76
2023-01-29T04:45:28.783Z,1005.67
2023-01-29T04:46:28.706Z,1005.63
2023-01-29T04:47:28.828Z,1005.64
2023-01-29T04:48:28.809Z,1005.69
2023-01-29T04:49:28.726Z,1005.66
2023-01-29T04:50:28.740Z,1005.71
2023-01-29T04:51:28.735Z,1005.67
2023-01-29T04:52:28.813Z,1005.68
2023-01-29T04:53:28.716Z,1005.64
2023-01-29T04:54:28.686Z,1005.65
2023-01-29T04:55:28.728Z,1005.64
2023-01-29T04:56:28.668Z,1005.67
2023-01-29T04:57:28.688Z,1005.71
2023-01-29T04:58:28.684Z,1005.75
2023-01-29T04:59:28.677Z,1005.75
2023-01-29T05:00:28.651Z,1005.78
2023-01-29T05:01:28.644Z,1005.71
2023-01-29T05:02:28.711Z,1005.70
2023-01-29T05:03:28.643Z,1005.70
2023-01-29T05:04:28.623Z,1005.73
2023-01-29T05:05:28.640Z,1005.66
2023-01-29T05:06:28.637Z,1005.66
2023-01-29T05:07:28.658Z,1005.63
2023-01-29T05:08:28.651Z,1005.59
2023-01-29T05:09:28.588Z,1005.52
2023-01-29T05:10:28.628Z,1005.53
2023-01-29T05:11:28.600Z,1005.58
2023-01-29T05:12:28.588Z,1005.56
2023-01-29T05:13:28.626Z,1005.55
2023-01-29T05:14:28.577Z,1005.58
2023-01-29T05:15:28.559Z,1005.58
2023-01-29T05:16:28.556Z,1005.59
2023-01-29T05:17:28.563Z,1005.59
2023-01-29T05:18:28.584Z,1005.59
2023-01-29T05:19:28.557Z,1005.53
2023-01-29T05:20:28.540Z,1005.49
2023-01-29T05:21:28.596Z,1005.43
2023-01-29T05:22:28.569Z,1005.44
2023-01-29T05:23:28.571Z,1005.40
2023-01-29T05:24:28.594Z,1005.38
2023-01-29T05:25:28.536Z,1005.38
2023-01-29T05:26:28.543Z,1005.38
2023-01-29T05:27:28.545Z,1005.43
2023-01-29T05:28:28.525Z,1005.43
2023-01-29T05:29:28.516Z,1005.42
2023-01-29T05:30:28.477Z,1005.39
2023-01-29T05:31:28.683Z,1005.42
2023-01-29T05:32:28.481Z,1005.34
2023-01-29T05:33:28.470Z,1005.39
2023-01-29T05:34:28.530Z,1005.33
2023-01-29T05:35:28.551Z,1005.31
2023-01-29T05:36:28.445Z,1005.32
2023-01-29T05:37:28.451Z,1005.29
2023-01-29T05:38:28.468Z,1005.27
2023-01-29T05:39:28.414Z,1005.30
2023-01-29T05:40:28.418Z,1005.24
2023-01-29T05:41:28.398Z,1005.22
2023-01-29T05:42:28.454Z,1005.22
2023-01-29T05:43:28.432Z,1005.18
2023-01-29T05:44:28.392Z,1005.16
2023-01-29T05:45:28.412Z,1005.18
2023-01-29T05:46:28.528Z,1005.14
2023-01-29T05:47:28.416Z,1005.16
2023-01-29T05:48:28.411Z,1005.10
2023-01-29T05:49:28.371Z,1005.11
2023-01-29T05:50:28.401Z,1005.15
2023-01-29T05:51:28.357Z,1005.15
2023-01-29T05:52:28.369Z,1005.11
2023-01-29T05:53:28.369Z,1005.16
2023-01-29T05:54:28.359Z,1005.18
2023-01-29T05:55:28.385Z,1005.15
2023-01-29T05:56:28.320Z,1005.19
2023-01-29T05:57:28.354Z,1005.16
2023-01-29T05:58:28.355Z,1005.26
2023-01-29T05:59:28.314Z,1005.35
2023-01-29T06:00:28.332Z,1005.37
2023-01-29T06:01:28.352Z,1005.31
2023-01-29T06:02:28.303Z,1005.23
2023-01-29T06:03:28.300Z,1005.23
2023-01-29T06:04:28.311Z,1005.30
2023-01-29T06:05:28.293Z,1005.24
2023-01-29T06:06:28.692Z,1005.30
2023-01-29T06:07:28.286Z,1005.30
2023-01-29T06:08:28.265Z,1005.28
2023-01-29T06:09:28.247Z,1005.30
2023-01-29T06:10:29.280Z,1005.28
2023-01-29T06:11:28.290Z,1005.31
2023-01-29T06:12:28.238Z,1005.29
2023-01-29T06:13:28.274Z,1005.23
2023-01-29T06:14:28.232Z,1005.27
2023-01-29T06:15:28.228Z,1005.32
2023-01-29T06:16:28.354Z,1005.30
2023-01-29T06:17:28.226Z,1005.36
2023-01-29T06:18:28.214Z,1005.36
2023-01-29T06:19:29.238Z,1005.45
2023-01-29T06:20:28.226Z,1005.50
2023-01-29T06:21:28.226Z,1005.42
2023-01-29T06:22:28.236Z,1005.51
2023-01-29T06:23:28.185Z,1005.58
2023-01-29T06:24:28.217Z,1005.65
2023-01-29T06:25:28.193Z,1005.71
2023-01-29T06:26:28.157Z,1005.63
2023-01-29T06:27:28.196Z,1005.74
2023-01-29T06:28:28.138Z,1005.74
2023-01-29T06:29:28.148Z,1005.78
2023-01-29T06:30:28.168Z,1005.79
2023-01-29T06:31:38.340Z,1005.79
2023-01-29T06:32:29.217Z,1005.79
2023-01-29T06:33:28.165Z,1005.81
2023-01-29T06:34:28.163Z,1005.82
2023-01-29T06:35:28.168Z,1005.83
2023-01-29T06:36:28.093Z,1005.80
2023-01-29T06:37:28.106Z,1005.93
2023-01-29T06:38:28.119Z,1005.93
2023-01-29T06:39:28.125Z,1005.93
2023-01-29T06:40:28.106Z,1005.95
2023-01-29T06:41:28.158Z,1005.90
2023-01-29T06:42:28.256Z,1005.93
2023-01-29T06:43:28.110Z,1005.95
2023-01-29T06:44:28.217Z,1005.94
2023-01-29T06:45:29.160Z,1005.96
2023-01-29T06:46:28.088Z,1005.98
2023-01-29T06:47:28.023Z,1005.91
2023-01-29T06:48:28.032Z,1005.92
2023-01-29T06:49:28.207Z,1005.85
2023-01-29T06:50:28.024Z,1005.88
2023-01-29T06:51:28.076Z,1005.76
2023-01-29T06:52:28.009Z,1005.81
2023-01-29T06:53:27.997Z,1005.81
2023-01-29T06:54:28.049Z,1005.82
2023-01-29T06:55:28.033Z,1005.86
2023-01-29T06:56:27.980Z,1005.75
2023-01-29T06:57:29.022Z,1005.81
2023-01-29T06:58:27.978Z,1005.76
2023-01-29T06:59:28.014Z,1005.82
2023-01-29T07:00:30.010Z,1005.86
2023-01-29T07:01:36.096Z,1005.87
2023-01-29T07:02:30.025Z,1005.92
2023-01-29T07:03:27.943Z,1005.98
2023-01-29T07:04:27.963Z,1006.06
2023-01-29T07:05:27.977Z,1006.05
2023-01-29T07:06:28.019Z,1006.05
2023-01-29T07:07:27.935Z,1006.01
2023-01-29T07:08:27.969Z,1005.98
2023-01-29T07:09:27.941Z,1006.02
2023-01-29T07:10:27.959Z,1006.06
2023-01-29T07:11:27.931Z,1006.07
2023-01-29T07:12:27.912Z,1006.09
2023-01-29T07:13:27.946Z,1006.07
2023-01-29T07:14:27.912Z,1005.99
2023-01-29T07:15:27.920Z,1006.06
2023-01-29T07:16:27.948Z,1006.01
2023-01-29T07:17:27.917Z,1006.06
2023-01-29T07:18:27.892Z,1006.07
2023-01-29T07:19:27.872Z,1006.05
2023-01-29T07:20:27.889Z,1006.05
2023-01-29T07:21:27.849Z,1006.05
2023-01-29T07:22:27.908Z,1006.07
2023-01-29T07:23:27.874Z,1006.16
2023-01-29T07:24:27.885Z,1006.18
2023-01-29T07:25:27.846Z,1006.15
2023-01-29T07:26:27.853Z,1006.30
2023-01-29T07:27:27.884Z,1006.26
2023-01-29T07:28:27.848Z,1006.31
2023-01-29T07:29:27.818Z,1006.39
2023-01-29T07:30:27.801Z,1006.36
2023-01-29T07:31:27.870Z,1006.37
2023-01-29T07:32:27.879Z,1006.34
2023-01-29T07:33:27.821Z,1006.23
2023-01-29T07:34:27.791Z,1006.12
2023-01-29T07:35:27.785Z,1006.01
2023-01-29T07:36:27.772Z,1005.93
2023-01-29T07:37:27.795Z,1005.86
2023-01-29T07:38:27.953Z,1005.72
2023-01-29T07:39:27.747Z,1005.62
2023-01-29T07:40:27.808Z,1005.57
2023-01-29T07:41:27.759Z,1005.62
2023-01-29T07:42:27.771Z,1005.63
2023-01-29T07:43:27.789Z,1005.69
2023-01-29T07:44:27.726Z,1005.76
2023-01-29T07:45:27.744Z,1005.77
2023-01-29T07:46:27.749Z,1005.73
2023-01-29T07:47:27.716Z,1005.82
2023-01-29T07:48:27.767Z,1005.80
2023-01-29T07:49:27.692Z,1005.79
2023-01-29T07:50:27.795Z,1005.74
2023-01-29T07:51:27.697Z,1005.75
2023-01-29T07:52:27.687Z,1005.75
2023-01-29T07:53:27.718Z,1005.77
2023-01-29T07:54:27.705Z,1005.78
2023-01-29T07:55:27.765Z,1005.76
2023-01-29T07:56:27.698Z,1005.79
2023-01-29T07:57:27.656Z,1005.80
2023-01-29T07:58:27.719Z,1005.71
2023-01-29T07:59:27.669Z,1005.69
2023-01-29T08:00:27.643Z,1005.70
2023-01-29T08:01:27.701Z,1005.65
2023-01-29T08:02:27.735Z,1005.65
2023-01-29T08:03:27.649Z,1005.70
2023-01-29T08:04:27.629Z,1005.76
2023-01-29T08:05:27.665Z,1005.70
2023-01-29T08:06:27.652Z,1005.77
2023-01-29T08:07:27.602Z,1005.77
2023-01-29T08:08:27.591Z,1005.74
2023-01-29T08:09:27.581Z,1005.68
2023-01-29T08:10:27.674Z,1005.71
2023-01-29T08:11:27.627Z,1005.60
2023-01-29T08:12:27.602Z,1005.61
2023-01-29T08:13:27.569Z,1005.59
2023-01-29T08:14:27.581Z,1005.60
2023-01-29T08:15:27.726Z,1005.62
2023-01-29T08:16:27.706Z,1005.65
2023-01-29T08:17:27.547Z,1005.66
2023-01-29T08:18:27.560Z,1005.65
2023-01-29T08:19:27.545Z,1005.70
2023-01-29T08:20:27.695Z,1005.75
2023-01-29T08:21:27.546Z,1005.83
2023-01-29T08:22:27.524Z,1005.82
2023-01-29T08:23:27.515Z,1005.88
2023-01-29T08:24:36.069Z,1005.92
2023-01-29T08:25:29.589Z,1005.90
2023-01-29T08:26:27.519Z,1005.96
2023-01-29T08:27:27.516Z,1005.94
2023-01-29T08:28:27.511Z,1006.04
2023-01-29T08:29:27.500Z,1005.99
2023-01-29T08:30:27.488Z,1005.96
2023-01-29T08:31:27.515Z,1005.95
2023-01-29T08:32:27.527Z,1005.99
2023-01-29T08:33:37.911Z,1006.04
2023-01-29T08:34:29.511Z,1006.07
2023-01-29T08:35:27.478Z,1006.16
2023-01-29T08:36:27.543Z,1006.19
2023-01-29T08:37:27.475Z,1006.10
2023-01-29T08:38:27.501Z,1006.04
2023-01-29T08:39:27.427Z,1006.02
2023-01-29T08:40:27.498Z,1005.98
2023-01-29T08:41:27.503Z,1005.98
2023-01-29T08:42:27.408Z,1005.99
2023-01-29T08:43:27.425Z,1005.97
2023-01-29T08:44:27.403Z,1005.93
2023-01-29T08:45:27.481Z,1005.92
2023-01-29T08:46:27.425Z,1005.90
2023-01-29T08:47:28.611Z,1005.84
2023-01-29T08:48:28.382Z,1005.93
2023-01-29T08:49:27.459Z,1005.89
2023-01-29T08:50:27.392Z,1005.91
2023-01-29T08:51:27.363Z,1005.82
2023-01-29T08:52:27.398Z,1005.82
2023-01-29T08:53:27.401Z,1005.85
2023-01-29T08:54:27.552Z,1005.90
2023-01-29T08:55:27.373Z,1005.99
2023-01-29T08:56:27.360Z,1006.07
2023-01-29T08:57:27.353Z,1005.97
2023-01-29T08:58:28.344Z,1005.98
2023-01-29T08:59:27.374Z,1006.02
2023-01-29T09:00:27.324Z,1006.01
2023-01-29T09:01:27.342Z,1005.96
2023-01-29T09:02:27.399Z,1006.02
2023-01-29T09:03:27.306Z,1005.95
2023-01-29T09:04:27.336Z,1005.96
2023-01-29T09:05:27.382Z,1005.94
2023-01-29T09:06:27.297Z,1005.92
2023-01-29T09:07:27.277Z,1005.78
2023-01-29T09:08:27.284Z,1005.68
2023-01-29T09:09:27.428Z,1005.71
2023-01-29T09:10:27.251Z,1005.77
2023-01-29T09:11:27.313Z,1005.69
2023-01-29T09:12:27.242Z,1005.72
2023-01-29T09:13:28.282Z,1005.75
2023-01-29T09:14:27.259Z,1005.76
2023-01-29T09:15:27.285Z,1005.75
2023-01-29T09:16:27.329Z,1005.71
2023-01-29T09:17:27.236Z,1005.67
2023-01-29T09:18:27.249Z,1005.70
2023-01-29T09:19:27.228Z,1005.74
2023-01-29T09:20:27.261Z,1005.65
2023-01-29T09:21:27.221Z,1005.63
2023-01-29T09:22:27.207Z,1005.65
2023-01-29T09:23:27.203Z,1005.62
2023-01-29T09:24:27.205Z,1005.65
2023-01-29T09:25:27.283Z,1005.60
2023-01-29T09:26:27.240Z,1005.61
2023-01-29T09:27:27.185Z,1005.57
2023-01-29T09:28:27.163Z,1005.52
2023-01-29T09:29:27.163Z,1005.55
2023-01-29T09:30:27.218Z,1005.52
2023-01-29T09:31:27.300Z,1005.57
2023-01-29T09:32:52.168Z,1005.55
2023-01-29T09:33:29.144Z,1005.52
2023-01-29T09:34:27.138Z,1005.56
2023-01-29T09:35:27.172Z,1005.59
2023-01-29T09:36:27.168Z,1005.56
2023-01-29T09:37:27.154Z,1005.64
2023-01-29T09:38:27.113Z,1005.59
2023-01-29T09:39:27.104Z,1005.60
2023-01-29T09:40:27.122Z,1005.60
2023-01-29T09:41:27.130Z,1005.55
2023-01-29T09:42:27.137Z,1005.55
2023-01-29T09:43:27.131Z,1005.50
2023-01-29T09:44:27.097Z,1005.50
2023-01-29T09:45:27.114Z,1005.46
2023-01-29T09:46:27.101Z,1005.47
2023-01-29T09:47:27.115Z,1005.46
2023-01-29T09:48:27.123Z,1005.43
2023-01-29T09:49:27.079Z,1005.50
2023-01-29T09:50:27.072Z,1005.51
2023-01-29T09:51:27.053Z,1005.52
2023-01-29T09:52:27.055Z,1005.54
2023-01-29T09:53:27.069Z,1005.45
2023-01-29T09:54:27.076Z,1005.49
2023-01-29T09:55:27.032Z,1005.51
2023-01-29T09:56:27.014Z,1005.46
2023-01-29T09:57:27.017Z,1005.39
2023-01-29T09:58:27.028Z,1005.37
2023-01-29T09:59:27.023Z,1005.38
2023-01-29T10:00:26.993Z,1005.41
2023-01-29T10:01:27.138Z,1005.38
2023-01-29T10:02:27.020Z,1005.35
2023-01-29T10:03:27.020Z,1005.45
2023-01-29T10:04:27.113Z,1005.45
2023-01-29T10:05:26.956Z,1005.46
2023-01-29T10:06:26.964Z,1005.36
2023-01-29T10:07:26.940Z,1005.32
2023-01-29T10:08:26.968Z,1005.33
2023-01-29T10:09:26.951Z,1005.23
2023-01-29T10:10:26.934Z,1005.31
2023-01-29T10:11:26.908Z,1005.26
2023-01-29T10:12:26.919Z,1005.27
2023-01-29T10:13:26.912Z,1005.25
2023-01-29T10:14:26.967Z,1005.25
2023-01-29T10:15:26.940Z,1005.24
2023-01-29T10:16:26.904Z,1005.20
2023-01-29T10:17:26.940Z,1005.26
2023-01-29T10:18:26.902Z,1005.28
2023-01-29T10:19:26.895Z,1005.27
2023-01-29T10:20:27.265Z,1005.28
2023-01-29T10:21:26.878Z,1005.32
2023-01-29T10:22:26.902Z,1005.37
2023-01-29T10:23:26.863Z,1005.37
2023-01-29T10:24:26.880Z,1005.43
2023-01-29T10:25:26.866Z,1005.44
2023-01-29T10:26:26.945Z,1005.37
2023-01-29T10:27:26.847Z,1005.43
2023-01-29T10:28:26.843Z,1005.45
2023-01-29T10:29:26.859Z,1005.42
2023-01-29T10:30:26.843Z,1005.42
2023-01-29T10:31:26.883Z,1005.43
2023-01-29T10:32:26.868Z,1005.38
2023-01-29T10:33:26.806Z,1005.44
2023-01-29T10:34:26.809Z,1005.38
2023-01-29T10:35:26.816Z,1005.34
2023-01-29T10:36:26.809Z,1005.27
2023-01-29T10:37:26.804Z,1005.31
2023-01-29T10:38:26.780Z,1005.23
2023-01-29T10:39:26.777Z,1005.23
2023-01-29T10:40:26.784Z,1005.19
2023-01-29T10:41:26.782Z,1005.18
2023-01-29T10:42:26.803Z,1005.12
2023-01-29T10:43:26.787Z,1005.11
2023-01-29T10:44:26.745Z,1005.11
2023-01-29T10:45:26.728Z,1005.09
2023-01-29T10:46:26.712Z,1005.04
2023-01-29T10:47:29.193Z,1005.05
2023-01-29T10:48:26.713Z,1005.03
2023-01-29T10:49:26.744Z,1005.03
2023-01-29T10:50:26.707Z,1005.01
2023-01-29T10:51:26.687Z,1005.03
2023-01-29T10:52:26.734Z,1005.06
2023-01-29T10:53:26.690Z,1004.99
2023-01-29T10:54:26.771Z,1005.03
2023-01-29T10:55:26.655Z,1005.03
2023-01-29T10:56:26.678Z,1005.03
2023-01-29T10:57:26.712Z,1004.98
2023-01-29T10:58:26.694Z,1004.92
2023-01-29T10:59:26.644Z,1004.85
2023-01-29T11:00:26.655Z,1004.84
2023-01-29T11:01:26.799Z,1004.76
2023-01-29T11:02:26.706Z,1004.76
2023-01-29T11:03:28.631Z,1004.84
2023-01-29T11:04:27.637Z,1004.67
2023-01-29T11:05:26.699Z,1004.58
2023-01-29T11:06:26.614Z,1004.60
2023-01-29T11:07:26.675Z,1004.60
2023-01-29T11:08:26.606Z,1004.60
2023-01-29T11:09:26.616Z,1004.51
2023-01-29T11:10:26.639Z,1004.50
2023-01-29T11:11:26.587Z,1004.50
2023-01-29T11:12:26.574Z,1004.38
2023-01-29T11:13:26.565Z,1004.40
2023-01-29T11:14:26.548Z,1004.36
2023-01-29T11:15:26.605Z,1004.30
2023-01-29T11:16:26.611Z,1004.22
2023-01-29T11:17:26.555Z,1004.15
2023-01-29T11:18:27.578Z,1004.16
2023-01-29T11:19:26.565Z,1004.19
2023-01-29T11:20:26.551Z,1004.16
2023-01-29T11:21:26.554Z,1004.16
2023-01-29T11:22:26.492Z,1004.24
2023-01-29T11:23:26.529Z,1004.12
2023-01-29T11:24:26.606Z,1004.19
2023-01-29T11:25:26.545Z,1004.14
2023-01-29T11:26:26.566Z,1004.14
2023-01-29T11:27:26.543Z,1004.09
2023-01-29T11:28:26.474Z,1004.11
2023-01-29T11:29:26.475Z,1004.14
2023-01-29T11:30:26.504Z,1004.05
2023-01-29T11:31:26.520Z,1004.09
2023-01-29T11:32:26.512Z,1004.06
2023-01-29T11:33:26.483Z,1004.06
2023-01-29T11:34:26.441Z,1004.00
2023-01-29T11:35:27.434Z,1003.99
2023-01-29T11:36:28.429Z,1003.90
2023-01-29T11:37:26.455Z,1003.82
2023-01-29T11:38:26.405Z,1003.79
2023-01-29T11:39:26.403Z,1003.73
2023-01-29T11:40:26.379Z,1003.77
2023-01-29T11:41:26.390Z,1003.75
2023-01-29T11:42:26.405Z,1003.78
2023-01-29T11:43:26.379Z,1003.75
2023-01-29T11:44:26.356Z,1003.76
2023-01-29T11:45:26.521Z,1003.78
2023-01-29T11:46:26.444Z,1003.75
2023-01-29T11:47:26.338Z,1003.75
2023-01-29T11:48:26.374Z,1003.66
2023-01-29T11:49:26.366Z,1003.69
2023-01-29T11:50:26.328Z,1003.63
2023-01-29T11:51:26.309Z,1003.63
2023-01-29T11:52:26.345Z,1003.57
2023-01-29T11:53:26.366Z,1003.57
2023-01-29T11:54:26.448Z,1003.58
2023-01-29T11:55:26.374Z,1003.58
2023-01-29T11:56:26.303Z,1003.48
2023-01-29T11:57:26.311Z,1003.59
2023-01-29T11:58:26.412Z,1003.46
2023-01-29T11:59:26.281Z,1003.45
2023-01-29T12:00:26.256Z,1003.50
2023-01-29T12:01:26.253Z,1003.49
2023-01-29T12:02:26.256Z,1003.48
2023-01-29T12:03:26.336Z,1003.45
2023-01-29T12:04:26.282Z,1003.47
2023-01-29T12:05:26.271Z,1003.51